Time;durP1;ratioP1;P1;durP2;ratioP2;P2;SDS_P1;SDS_P2;PMS_P1;PMS_P2;Temp;Humidity;BMP_temperature;BMP_pressure;BME280_temperature;BME280_humidity;BME280_pressure;Samples;Min_cycle;Max_cycle;Signal;HPM_P1;HPM_P2
2019/10/07 00:01:34;;;;;;;8.4;7.7;;;;;;;;;;;;;
2019/10/07 00:03:59;;;;;;;7.1;6.5;;;;;;;;;;;;;
2019/10/07 00:06:25;;;;;;;6.7;6.2;;;;;;;;;;;;;
2019/10/07 00:08:50;;;;;;;6.9;6.3;;;;;;;;;;;;;
2019/10/07 00:11:15;;;;;;;7.4;6.8;;;;;;;;;;;;;
2019/10/07 00:13:40;;;;;;;7.5;6.9;;;;;;;;;;;;;
2019/10/07 00:16:05;;;;;;;7.4;6.7;;;;;;;;;;;;;
2019/10/07 00:18:30;;;;;;;6.6;6.1;;;;;;;;;;;;;
2019/10/07 00:20:55;;;;;;;5.5;5.1;;;;;;;;;;;;;
2019/10/07 00:23:21;;;;;;;5.7;5.3;;;;;;;;;;;;;
2019/10/07 00:25:46;;;;;;;6.1;5.6;;;;;;;;;;;;;
2019/10/07 00:28:11;;;;;;;6.2;5.7;;;;;;;;;;;;;
2019/10/07 00:30:36;;;;;;;6.3;5.8;;;;;;;;;;;;;
2019/10/07 00:33:01;;;;;;;5.9;5.4;;;;;;;;;;;;;
2019/10/07 00:35:26;;;;;;;6.5;6;;;;;;;;;;;;;
2019/10/07 00:37:51;;;;;;;7.3;6.7;;;;;;;;;;;;;
2019/10/07 00:40:16;;;;;;;6.4;5.9;;;;;;;;;;;;;
2019/10/07 00:42:41;;;;;;;6.5;6;;;;;;;;;;;;;
2019/10/07 00:45:06;;;;;;;7.5;6.9;;;;;;;;;;;;;
2019/10/07 00:47:31;;;;;;;6.4;5.9;;;;;;;;;;;;;
2019/10/07 00:49:56;;;;;;;7;6.3;;;;;;;;;;;;;
2019/10/07 00:52:21;;;;;;;6.5;6;;;;;;;;;;;;;
2019/10/07 00:54:46;;;;;;;6.8;6.3;;;;;;;;;;;;;
2019/10/07 00:57:11;;;;;;;5.9;5.4;;;;;;;;;;;;;
2019/10/07 00:59:40;;;;;;;6.3;5.7;;;;;;;;;;;;;
2019/10/07 01:02:02;;;;;;;7.5;6.9;;;;;;;;;;;;;
2019/10/07 01:04:27;;;;;;;6.8;6.3;;;;;;;;;;;;;
2019/10/07 01:06:52;;;;;;;7;6.5;;;;;;;;;;;;;
2019/10/07 01:09:17;;;;;;;7.2;6.7;;;;;;;;;;;;;
2019/10/07 01:11:42;;;;;;;7.6;7;;;;;;;;;;;;;
2019/10/07 01:14:07;;;;;;;7.6;7;;;;;;;;;;;;;
2019/10/07 01:16:32;;;;;;;5.6;5.2;;;;;;;;;;;;;
2019/10/07 01:18:58;;;;;;;5.4;4.9;;;;;;;;;;;;;
2019/10/07 01:21:23;;;;;;;6.3;5.7;;;;;;;;;;;;;
2019/10/07 01:23:48;;;;;;;5.3;4.9;;;;;;;;;;;;;
2019/10/07 01:26:13;;;;;;;5.1;4.7;;;;;;;;;;;;;
2019/10/07 01:28:38;;;;;;;5.5;5.1;;;;;;;;;;;;;
2019/10/07 01:31:03;;;;;;;4.8;4.4;;;;;;;;;;;;;
2019/10/07 01:33:28;;;;;;;5.3;4.8;;;;;;;;;;;;;
2019/10/07 01:35:53;;;;;;;3.4;3.1;;;;;;;;;;;;;
2019/10/07 01:38:18;;;;;;;3.9;3.6;;;;;;;;;;;;;
2019/10/07 01:40:44;;;;;;;4;3.7;;;;;;;;;;;;;
2019/10/07 01:43:09;;;;;;;4.7;4.3;;;;;;;;;;;;;
2019/10/07 01:45:34;;;;;;;4.2;3.9;;;;;;;;;;;;;
2019/10/07 01:47:59;;;;;;;4.4;4;;;;;;;;;;;;;
2019/10/07 01:50:24;;;;;;;4.9;4.5;;;;;;;;;;;;;
2019/10/07 01:52:49;;;;;;;5;4.6;;;;;;;;;;;;;
2019/10/07 01:55:14;;;;;;;5.2;4.8;;;;;;;;;;;;;
2019/10/07 01:57:39;;;;;;;5.4;4.9;;;;;;;;;;;;;
2019/10/07 02:00:05;;;;;;;5.7;5.2;;;;;;;;;;;;;
2019/10/07 02:02:30;;;;;;;5;4.6;;;;;;;;;;;;;
2019/10/07 02:04:55;;;;;;;6.1;5.5;;;;;;;;;;;;;
2019/10/07 02:07:20;;;;;;;6.3;5.8;;;;;;;;;;;;;
2019/10/07 02:09:45;;;;;;;6.5;5.8;;;;;;;;;;;;;
2019/10/07 02:12:10;;;;;;;6.5;6;;;;;;;;;;;;;
2019/10/07 02:14:35;;;;;;;5.9;5.4;;;;;;;;;;;;;
2019/10/07 02:17:00;;;;;;;6;5.5;;;;;;;;;;;;;
2019/10/07 02:19:30;;;;;;;7;6.4;;;;;;;;;;;;;
2019/10/07 02:21:51;;;;;;;8.2;7.4;;;;;;;;;;;;;
2019/10/07 02:24:16;;;;;;;9.2;7.3;;;;;;;;;;;;;
2019/10/07 02:26:41;;;;;;;8.3;7.5;;;;;;;;;;;;;
2019/10/07 02:29:06;;;;;;;7.4;6.8;;;;;;;;;;;;;
2019/10/07 02:31:31;;;;;;;6.3;5.8;;;;;;;;;;;;;
2019/10/07 02:33:56;;;;;;;6.7;6.1;;;;;;;;;;;;;
2019/10/07 02:36:21;;;;;;;6.4;5.8;;;;;;;;;;;;;
2019/10/07 02:38:46;;;;;;;6.3;5.8;;;;;;;;;;;;;
2019/10/07 02:41:11;;;;;;;6.9;6.2;;;;;;;;;;;;;
2019/10/07 02:43:37;;;;;;;7.3;6.6;;;;;;;;;;;;;
2019/10/07 02:46:02;;;;;;;7;6.4;;;;;;;;;;;;;
2019/10/07 02:48:27;;;;;;;6.2;5.7;;;;;;;;;;;;;
2019/10/07 02:50:52;;;;;;;6.6;6;;;;;;;;;;;;;
2019/10/07 02:53:17;;;;;;;6.3;5.7;;;;;;;;;;;;;
2019/10/07 02:55:42;;;;;;;5.6;5.1;;;;;;;;;;;;;
2019/10/07 02:58:45;;;;;;;5.8;5.1;;;;;;;;;;;;;
2019/10/07 03:00:32;;;;;;;6.2;5.6;;;;;;;;;;;;;
2019/10/07 03:02:57;;;;;;;5.6;5.1;;;;;;;;;;;;;
2019/10/07 03:05:22;;;;;;;7.2;5.2;;;;;;;;;;;;;
2019/10/07 03:07:47;;;;;;;6.8;5.6;;;;;;;;;;;;;
2019/10/07 03:10:13;;;;;;;7;6.3;;;;;;;;;;;;;
2019/10/07 03:12:47;;;;;;;6.9;6.3;;;;;;;;;;;;;
